sensor_id;sensor_type;location;lat;lon;timestamp;temperature;humidity
79489;SHT31;68949;53.176;18.088;2023-04-25T00:01:29;12.26;82.11
79489;SHT31;68949;53.176;18.088;2023-04-25T00:03:56;12.23;82.10
79489;SHT31;68949;53.176;18.088;2023-04-25T00:06:23;12.19;82.17
79489;SHT31;68949;53.176;18.088;2023-04-25T00:08:52;12.19;82.26
79489;SHT31;68949;53.176;18.088;2023-04-25T00:11:20;12.19;82.22
79489;SHT31;68949;53.176;18.088;2023-04-25T00:13:47;12.19;82.12
79489;SHT31;68949;53.176;18.088;2023-04-25T00:16:16;12.19;82.21
79489;SHT31;68949;53.176;18.088;2023-04-25T00:18:43;12.14;82.19
79489;SHT31;68949;53.176;18.088;2023-04-25T00:21:12;12.10;82.28
79489;SHT31;68949;53.176;18.088;2023-04-25T00:23:39;12.03;82.31
79489;SHT31;68949;53.176;18.088;2023-04-25T00:26:05;11.97;82.46
79489;SHT31;68949;53.176;18.088;2023-04-25T00:28:32;11.88;82.53
79489;SHT31;68949;53.176;18.088;2023-04-25T00:30:59;11.84;82.63
79489;SHT31;68949;53.176;18.088;2023-04-25T00:33:25;11.80;82.59
79489;SHT31;68949;53.176;18.088;2023-04-25T00:35:52;11.76;82.63
79489;SHT31;68949;53.176;18.088;2023-04-25T00:38:19;11.74;82.54
79489;SHT31;68949;53.176;18.088;2023-04-25T00:40:46;11.71;82.28
79489;SHT31;68949;53.176;18.088;2023-04-25T00:43:12;11.68;82.15
79489;SHT31;68949;53.176;18.088;2023-04-25T00:45:39;11.63;82.12
79489;SHT31;68949;53.176;18.088;2023-04-25T00:48:06;11.57;82.18
79489;SHT31;68949;53.176;18.088;2023-04-25T00:50:33;11.48;82.14
79489;SHT31;68949;53.176;18.088;2023-04-25T00:53:01;11.42;81.85
79489;SHT31;68949;53.176;18.088;2023-04-25T00:55:30;11.36;81.39
79489;SHT31;68949;53.176;18.088;2023-04-25T00:57:59;11.29;81.05
79489;SHT31;68949;53.176;18.088;2023-04-25T01:00:26;11.21;80.97
79489;SHT31;68949;53.176;18.088;2023-04-25T01:02:53;11.13;81.08
79489;SHT31;68949;53.176;18.088;2023-04-25T01:05:20;11.07;81.17
79489;SHT31;68949;53.176;18.088;2023-04-25T01:07:47;11.00;81.16
79489;SHT31;68949;53.176;18.088;2023-04-25T01:10:13;10.94;81.25
79489;SHT31;68949;53.176;18.088;2023-04-25T01:12:41;10.90;81.31
79489;SHT31;68949;53.176;18.088;2023-04-25T01:15:08;10.85;81.34
79489;SHT31;68949;53.176;18.088;2023-04-25T01:17:35;10.79;81.30
79489;SHT31;68949;53.176;18.088;2023-04-25T01:20:03;10.74;81.33
79489;SHT31;68949;53.176;18.088;2023-04-25T01:22:33;10.70;81.34
79489;SHT31;68949;53.176;18.088;2023-04-25T01:25:00;10.68;81.23
79489;SHT31;68949;53.176;18.088;2023-04-25T01:27:28;10.64;81.21
79489;SHT31;68949;53.176;18.088;2023-04-25T01:29:56;10.61;81.27
79489;SHT31;68949;53.176;18.088;2023-04-25T01:32:23;10.57;81.19
79489;SHT31;68949;53.176;18.088;2023-04-25T01:34:50;10.52;81.28
79489;SHT31;68949;53.176;18.088;2023-04-25T01:37:19;10.48;81.27
79489;SHT31;68949;53.176;18.088;2023-04-25T01:39:47;10.45;81.20
79489;SHT31;68949;53.176;18.088;2023-04-25T01:42:15;10.40;81.16
79489;SHT31;68949;53.176;18.088;2023-04-25T01:44:41;10.38;81.18
79489;SHT31;68949;53.176;18.088;2023-04-25T01:47:08;10.34;81.14
79489;SHT31;68949;53.176;18.088;2023-04-25T01:49:35;10.29;81.19
79489;SHT31;68949;53.176;18.088;2023-04-25T01:52:01;10.31;81.03
79489;SHT31;68949;53.176;18.088;2023-04-25T01:54:28;10.29;80.92
79489;SHT31;68949;53.176;18.088;2023-04-25T01:56:57;10.26;80.93
79489;SHT31;68949;53.176;18.088;2023-04-25T01:59:24;10.21;80.93
79489;SHT31;68949;53.176;18.088;2023-04-25T02:02:36;10.15;80.91
79489;SHT31;68949;53.176;18.088;2023-04-25T02:05:04;10.09;80.97
79489;SHT31;68949;53.176;18.088;2023-04-25T02:07:34;10.04;80.96
79489;SHT31;68949;53.176;18.088;2023-04-25T02:10:01;10.00;80.77
79489;SHT31;68949;53.176;18.088;2023-04-25T02:12:32;9.92;80.69
79489;SHT31;68949;53.176;18.088;2023-04-25T02:15:02;9.86;80.69
79489;SHT31;68949;53.176;18.088;2023-04-25T02:17:42;9.78;80.70
79489;SHT31;68949;53.176;18.088;2023-04-25T02:20:09;9.72;80.92
79489;SHT31;68949;53.176;18.088;2023-04-25T02:22:36;9.69;81.00
79489;SHT31;68949;53.176;18.088;2023-04-25T02:25:06;9.65;81.08
79489;SHT31;68949;53.176;18.088;2023-04-25T02:27:33;9.61;81.26
79489;SHT31;68949;53.176;18.088;2023-04-25T02:29:59;9.56;81.30
79489;SHT31;68949;53.176;18.088;2023-04-25T02:32:26;9.52;81.47
79489;SHT31;68949;53.176;18.088;2023-04-25T02:34:53;9.48;81.64
79489;SHT31;68949;53.176;18.088;2023-04-25T02:37:20;9.46;81.79
79489;SHT31;68949;53.176;18.088;2023-04-25T02:39:47;9.43;81.86
79489;SHT31;68949;53.176;18.088;2023-04-25T02:42:13;9.40;81.79
79489;SHT31;68949;53.176;18.088;2023-04-25T02:44:40;9.38;81.75
79489;SHT31;68949;53.176;18.088;2023-04-25T02:47:07;9.35;81.88
79489;SHT31;68949;53.176;18.088;2023-04-25T02:49:33;9.36;81.94
79489;SHT31;68949;53.176;18.088;2023-04-25T02:52:00;9.38;81.99
79489;SHT31;68949;53.176;18.088;2023-04-25T02:54:27;9.41;81.79
79489;SHT31;68949;53.176;18.088;2023-04-25T02:56:55;9.39;81.57
79489;SHT31;68949;53.176;18.088;2023-04-25T02:59:25;9.35;81.73
79489;SHT31;68949;53.176;18.088;2023-04-25T03:01:52;9.29;81.50
79489;SHT31;68949;53.176;18.088;2023-04-25T03:04:18;9.23;81.49
79489;SHT31;68949;53.176;18.088;2023-04-25T03:06:45;9.19;81.23
79489;SHT31;68949;53.176;18.088;2023-04-25T03:09:12;9.14;81.10
79489;SHT31;68949;53.176;18.088;2023-04-25T03:11:39;9.06;80.92
79489;SHT31;68949;53.176;18.088;2023-04-25T03:14:06;8.98;80.90
79489;SHT31;68949;53.176;18.088;2023-04-25T03:16:33;8.95;80.87
79489;SHT31;68949;53.176;18.088;2023-04-25T03:19:00;8.95;80.89
79489;SHT31;68949;53.176;18.088;2023-04-25T03:21:26;8.93;80.96
79489;SHT31;68949;53.176;18.088;2023-04-25T03:23:53;8.91;80.97
79489;SHT31;68949;53.176;18.088;2023-04-25T03:26:20;8.87;80.86
79489;SHT31;68949;53.176;18.088;2023-04-25T03:28:46;8.81;80.85
79489;SHT31;68949;53.176;18.088;2023-04-25T03:31:13;8.79;80.84
79489;SHT31;68949;53.176;18.088;2023-04-25T03:33:40;8.76;80.80
79489;SHT31;68949;53.176;18.088;2023-04-25T03:36:07;8.75;80.78
79489;SHT31;68949;53.176;18.088;2023-04-25T03:38:34;8.72;80.71
79489;SHT31;68949;53.176;18.088;2023-04-25T03:41:01;8.68;80.74
79489;SHT31;68949;53.176;18.088;2023-04-25T03:43:40;8.66;80.60
79489;SHT31;68949;53.176;18.088;2023-04-25T03:46:10;8.61;80.69
79489;SHT31;68949;53.176;18.088;2023-04-25T03:48:37;8.62;80.85
79489;SHT31;68949;53.176;18.088;2023-04-25T03:51:04;8.58;80.83
79489;SHT31;68949;53.176;18.088;2023-04-25T03:53:31;8.53;80.84
79489;SHT31;68949;53.176;18.088;2023-04-25T03:56:17;8.52;80.93
79489;SHT31;68949;53.176;18.088;2023-04-25T03:58:45;8.51;80.97
79489;SHT31;68949;53.176;18.088;2023-04-25T04:01:13;8.55;81.05
79489;SHT31;68949;53.176;18.088;2023-04-25T04:03:40;8.53;81.19
79489;SHT31;68949;53.176;18.088;2023-04-25T04:06:07;8.54;81.27
79489;SHT31;68949;53.176;18.088;2023-04-25T04:08:45;8.55;81.23
79489;SHT31;68949;53.176;18.088;2023-04-25T04:11:12;8.54;81.25
79489;SHT31;68949;53.176;18.088;2023-04-25T04:13:38;8.56;81.29
79489;SHT31;68949;53.176;18.088;2023-04-25T04:16:06;8.58;81.13
79489;SHT31;68949;53.176;18.088;2023-04-25T04:18:33;8.57;81.17
79489;SHT31;68949;53.176;18.088;2023-04-25T04:21:00;8.53;81.17
79489;SHT31;68949;53.176;18.088;2023-04-25T04:23:29;8.51;81.21
79489;SHT31;68949;53.176;18.088;2023-04-25T04:25:59;8.51;81.11
79489;SHT31;68949;53.176;18.088;2023-04-25T04:28:40;8.68;80.87
79489;SHT31;68949;53.176;18.088;2023-04-25T04:31:36;8.76;80.57
79489;SHT31;68949;53.176;18.088;2023-04-25T04:34:06;8.73;80.54
79489;SHT31;68949;53.176;18.088;2023-04-25T04:36:34;8.72;80.59
79489;SHT31;68949;53.176;18.088;2023-04-25T04:39:01;8.73;80.52
79489;SHT31;68949;53.176;18.088;2023-04-25T04:41:40;8.71;80.38
79489;SHT31;68949;53.176;18.088;2023-04-25T04:44:14;8.70;80.45
79489;SHT31;68949;53.176;18.088;2023-04-25T04:46:54;8.70;80.32
79489;SHT31;68949;53.176;18.088;2023-04-25T04:49:34;8.69;80.39
79489;SHT31;68949;53.176;18.088;2023-04-25T04:52:19;8.70;80.23
79489;SHT31;68949;53.176;18.088;2023-04-25T04:55:05;8.67;80.37
79489;SHT31;68949;53.176;18.088;2023-04-25T04:57:43;8.63;80.43
79489;SHT31;68949;53.176;18.088;2023-04-25T05:00:24;8.61;80.34
79489;SHT31;68949;53.176;18.088;2023-04-25T05:03:12;8.53;80.30
79489;SHT31;68949;53.176;18.088;2023-04-25T05:05:48;8.49;80.23
79489;SHT31;68949;53.176;18.088;2023-04-25T05:08:36;8.47;80.37
79489;SHT31;68949;53.176;18.088;2023-04-25T05:11:16;8.44;80.31
79489;SHT31;68949;53.176;18.088;2023-04-25T05:14:12;8.44;80.19
79489;SHT31;68949;53.176;18.088;2023-04-25T05:16:59;8.44;80.30
79489;SHT31;68949;53.176;18.088;2023-04-25T05:19:36;8.43;80.09
79489;SHT31;68949;53.176;18.088;2023-04-25T05:22:18;8.43;80.20
79489;SHT31;68949;53.176;18.088;2023-04-25T05:25:03;8.47;79.98
79489;SHT31;68949;53.176;18.088;2023-04-25T05:27:49;8.42;79.80
79489;SHT31;68949;53.176;18.088;2023-04-25T05:30:39;8.48;80.02
79489;SHT31;68949;53.176;18.088;2023-04-25T05:33:11;8.48;79.81
79489;SHT31;68949;53.176;18.088;2023-04-25T05:35:38;8.54;79.80
79489;SHT31;68949;53.176;18.088;2023-04-25T05:38:05;8.57;79.76
79489;SHT31;68949;53.176;18.088;2023-04-25T05:40:51;8.59;79.53
79489;SHT31;68949;53.176;18.088;2023-04-25T05:43:38;8.58;79.37
79489;SHT31;68949;53.176;18.088;2023-04-25T05:46:21;8.64;79.63
79489;SHT31;68949;53.176;18.088;2023-04-25T05:49:11;8.72;79.12
79489;SHT31;68949;53.176;18.088;2023-04-25T05:51:58;8.82;78.99
79489;SHT31;68949;53.176;18.088;2023-04-25T05:54:48;8.94;78.74
79489;SHT31;68949;53.176;18.088;2023-04-25T05:57:25;9.07;78.63
79489;SHT31;68949;53.176;18.088;2023-04-25T05:59:54;9.15;78.56
79489;SHT31;68949;53.176;18.088;2023-04-25T06:02:22;9.19;78.05
79489;SHT31;68949;53.176;18.088;2023-04-25T06:04:49;9.18;77.93
79489;SHT31;68949;53.176;18.088;2023-04-25T06:07:17;9.24;77.64
79489;SHT31;68949;53.176;18.088;2023-04-25T06:09:46;9.33;77.50
79489;SHT31;68949;53.176;18.088;2023-04-25T06:12:13;9.48;77.69
79489;SHT31;68949;53.176;18.088;2023-04-25T06:14:40;9.61;77.49
79489;SHT31;68949;53.176;18.088;2023-04-25T06:17:07;9.67;77.28
79489;SHT31;68949;53.176;18.088;2023-04-25T06:19:35;9.66;76.33
79489;SHT31;68949;53.176;18.088;2023-04-25T06:22:02;9.62;76.84
79489;SHT31;68949;53.176;18.088;2023-04-25T06:24:30;9.61;76.44
79489;SHT31;68949;53.176;18.088;2023-04-25T06:26:57;9.65;76.81
79489;SHT31;68949;53.176;18.088;2023-04-25T06:29:23;9.74;76.66
79489;SHT31;68949;53.176;18.088;2023-04-25T06:31:50;9.83;76.59
79489;SHT31;68949;53.176;18.088;2023-04-25T06:34:17;9.91;75.96
79489;SHT31;68949;53.176;18.088;2023-04-25T06:36:44;9.90;75.54
79489;SHT31;68949;53.176;18.088;2023-04-25T06:39:12;9.95;75.92
79489;SHT31;68949;53.176;18.088;2023-04-25T06:41:38;10.05;75.94
79489;SHT31;68949;53.176;18.088;2023-04-25T06:44:07;10.16;75.37
79489;SHT31;68949;53.176;18.088;2023-04-25T06:46:39;10.22;74.89
79489;SHT31;68949;53.176;18.088;2023-04-25T06:49:06;10.29;74.35
79489;SHT31;68949;53.176;18.088;2023-04-25T06:51:33;10.39;74.26
79489;SHT31;68949;53.176;18.088;2023-04-25T06:54:00;10.55;74.57
79489;SHT31;68949;53.176;18.088;2023-04-25T06:56:35;10.70;74.78
79489;SHT31;68949;53.176;18.088;2023-04-25T06:59:13;10.82;74.38
79489;SHT31;68949;53.176;18.088;2023-04-25T07:01:41;10.78;74.05
79489;SHT31;68949;53.176;18.088;2023-04-25T07:04:15;10.67;73.13
79489;SHT31;68949;53.176;18.088;2023-04-25T07:06:46;10.58;73.76
79489;SHT31;68949;53.176;18.088;2023-04-25T07:09:15;10.66;72.97
79489;SHT31;68949;53.176;18.088;2023-04-25T07:11:43;10.57;71.06
79489;SHT31;68949;53.176;18.088;2023-04-25T07:14:10;10.61;72.66
79489;SHT31;68949;53.176;18.088;2023-04-25T07:16:36;10.64;72.11
79489;SHT31;68949;53.176;18.088;2023-04-25T07:19:03;10.63;72.16
79489;SHT31;68949;53.176;18.088;2023-04-25T07:21:30;10.73;71.92
79489;SHT31;68949;53.176;18.088;2023-04-25T07:23:59;10.81;72.14
79489;SHT31;68949;53.176;18.088;2023-04-25T07:26:29;10.91;72.11
79489;SHT31;68949;53.176;18.088;2023-04-25T07:29:17;10.82;70.05
79489;SHT31;68949;53.176;18.088;2023-04-25T07:31:44;10.74;69.98
79489;SHT31;68949;53.176;18.088;2023-04-25T07:34:10;10.88;69.97
79489;SHT31;68949;53.176;18.088;2023-04-25T07:36:38;11.09;69.99
79489;SHT31;68949;53.176;18.088;2023-04-25T07:39:05;11.50;70.23
79489;SHT31;68949;53.176;18.088;2023-04-25T07:41:33;11.77;69.79
79489;SHT31;68949;53.176;18.088;2023-04-25T07:43:59;11.70;69.53
79489;SHT31;68949;53.176;18.088;2023-04-25T07:46:26;11.72;69.70
79489;SHT31;68949;53.176;18.088;2023-04-25T07:48:53;11.87;68.48
79489;SHT31;68949;53.176;18.088;2023-04-25T07:51:20;11.99;68.53
79489;SHT31;68949;53.176;18.088;2023-04-25T07:53:49;12.16;68.38
79489;SHT31;68949;53.176;18.088;2023-04-25T07:56:16;12.27;67.98
79489;SHT31;68949;53.176;18.088;2023-04-25T07:58:44;12.17;66.71
79489;SHT31;68949;53.176;18.088;2023-04-25T08:01:13;12.04;66.85
79489;SHT31;68949;53.176;18.088;2023-04-25T08:03:53;12.00;67.63
79489;SHT31;68949;53.176;18.088;2023-04-25T08:06:27;12.03;68.03
79489;SHT31;68949;53.176;18.088;2023-04-25T08:09:15;12.07;67.70
79489;SHT31;68949;53.176;18.088;2023-04-25T08:11:42;12.09;67.86
79489;SHT31;68949;53.176;18.088;2023-04-25T08:14:10;11.99;67.46
79489;SHT31;68949;53.176;18.088;2023-04-25T08:16:39;11.82;66.96
79489;SHT31;68949;53.176;18.088;2023-04-25T08:19:07;11.62;67.77
79489;SHT31;68949;53.176;18.088;2023-04-25T08:21:34;11.54;67.94
79489;SHT31;68949;53.176;18.088;2023-04-25T08:24:03;11.47;67.80
79489;SHT31;68949;53.176;18.088;2023-04-25T08:26:33;11.38;68.02
79489;SHT31;68949;53.176;18.088;2023-04-25T08:29:02;11.44;68.99
79489;SHT31;68949;53.176;18.088;2023-04-25T08:31:31;11.48;68.18
79489;SHT31;68949;53.176;18.088;2023-04-25T08:34:00;11.52;68.28
79489;SHT31;68949;53.176;18.088;2023-04-25T08:36:38;11.61;68.97
79489;SHT31;68949;53.176;18.088;2023-04-25T08:39:05;11.77;68.90
79489;SHT31;68949;53.176;18.088;2023-04-25T08:41:36;11.94;68.14
79489;SHT31;68949;53.176;18.088;2023-04-25T08:44:05;12.13;67.76
79489;SHT31;68949;53.176;18.088;2023-04-25T08:46:38;12.30;67.39
79489;SHT31;68949;53.176;18.088;2023-04-25T08:49:16;12.38;67.29
79489;SHT31;68949;53.176;18.088;2023-04-25T08:51:46;12.59;67.00
79489;SHT31;68949;53.176;18.088;2023-04-25T08:54:14;12.71;65.79
79489;SHT31;68949;53.176;18.088;2023-04-25T08:56:44;12.72;65.72
79489;SHT31;68949;53.176;18.088;2023-04-25T08:59:14;12.48;62.60
79489;SHT31;68949;53.176;18.088;2023-04-25T09:01:42;12.20;63.17
79489;SHT31;68949;53.176;18.088;2023-04-25T09:04:09;12.08;64.45
79489;SHT31;68949;53.176;18.088;2023-04-25T09:06:40;11.97;64.95
79489;SHT31;68949;53.176;18.088;2023-04-25T09:09:07;11.91;65.75
79489;SHT31;68949;53.176;18.088;2023-04-25T09:11:37;11.92;66.03
79489;SHT31;68949;53.176;18.088;2023-04-25T09:14:19;11.99;66.10
79489;SHT31;68949;53.176;18.088;2023-04-25T09:17:11;12.04;66.20
79489;SHT31;68949;53.176;18.088;2023-04-25T09:19:49;12.08;66.42
79489;SHT31;68949;53.176;18.088;2023-04-25T09:22:27;12.14;65.66
79489;SHT31;68949;53.176;18.088;2023-04-25T09:24:53;12.16;65.53
79489;SHT31;68949;53.176;18.088;2023-04-25T09:27:22;12.21;65.32
79489;SHT31;68949;53.176;18.088;2023-04-25T09:30:04;12.27;64.96
79489;SHT31;68949;53.176;18.088;2023-04-25T09:33:09;12.42;64.82
79489;SHT31;68949;53.176;18.088;2023-04-25T09:35:38;12.55;64.80
79489;SHT31;68949;53.176;18.088;2023-04-25T09:38:13;12.62;65.81
79489;SHT31;68949;53.176;18.088;2023-04-25T09:40:53;12.73;64.94
79489;SHT31;68949;53.176;18.088;2023-04-25T09:43:34;12.78;64.64
79489;SHT31;68949;53.176;18.088;2023-04-25T09:46:01;12.86;64.63
79489;SHT31;68949;53.176;18.088;2023-04-25T09:48:29;12.84;62.85
79489;SHT31;68949;53.176;18.088;2023-04-25T09:53:36;12.84;64.01
79489;SHT31;68949;53.176;18.088;2023-04-25T09:56:12;12.99;63.21
79489;SHT31;68949;53.176;18.088;2023-04-25T09:58:40;13.05;62.48
79489;SHT31;68949;53.176;18.088;2023-04-25T10:01:08;13.12;62.33
79489;SHT31;68949;53.176;18.088;2023-04-25T10:03:42;13.18;62.37
79489;SHT31;68949;53.176;18.088;2023-04-25T10:06:26;13.19;61.24
79489;SHT31;68949;53.176;18.088;2023-04-25T10:08:54;13.13;60.95
79489;SHT31;68949;53.176;18.088;2023-04-25T10:11:22;12.93;61.08
79489;SHT31;68949;53.176;18.088;2023-04-25T10:13:52;12.83;61.35
79489;SHT31;68949;53.176;18.088;2023-04-25T10:16:19;12.77;61.53
79489;SHT31;68949;53.176;18.088;2023-04-25T10:18:47;12.65;61.17
79489;SHT31;68949;53.176;18.088;2023-04-25T10:21:14;12.60;61.92
79489;SHT31;68949;53.176;18.088;2023-04-25T10:23:43;12.60;62.32
79489;SHT31;68949;53.176;18.088;2023-04-25T10:26:11;12.61;62.25
79489;SHT31;68949;53.176;18.088;2023-04-25T10:28:55;12.67;62.46
79489;SHT31;68949;53.176;18.088;2023-04-25T10:31:29;12.75;62.34
79489;SHT31;68949;53.176;18.088;2023-04-25T10:33:57;12.85;62.05
79489;SHT31;68949;53.176;18.088;2023-04-25T10:36:26;12.82;61.17
79489;SHT31;68949;53.176;18.088;2023-04-25T10:39:02;12.82;61.37
79489;SHT31;68949;53.176;18.088;2023-04-25T10:41:56;12.88;61.89
79489;SHT31;68949;53.176;18.088;2023-04-25T10:44:30;12.84;60.88
79489;SHT31;68949;53.176;18.088;2023-04-25T10:46:59;12.79;61.34
79489;SHT31;68949;53.176;18.088;2023-04-25T10:49:37;12.82;61.27
79489;SHT31;68949;53.176;18.088;2023-04-25T10:52:16;12.86;60.84
79489;SHT31;68949;53.176;18.088;2023-04-25T10:54:53;12.77;59.50
79489;SHT31;68949;53.176;18.088;2023-04-25T10:57:39;12.69;59.47
79489;SHT31;68949;53.176;18.088;2023-04-25T11:00:09;12.51;58.95
79489;SHT31;68949;53.176;18.088;2023-04-25T11:02:45;12.45;59.19
79489;SHT31;68949;53.176;18.088;2023-04-25T11:08:02;12.65;61.25
79489;SHT31;68949;53.176;18.088;2023-04-25T11:10:38;12.87;60.72
79489;SHT31;68949;53.176;18.088;2023-04-25T11:13:07;12.95;59.38
79489;SHT31;68949;53.176;18.088;2023-04-25T11:15:34;12.71;57.60
79489;SHT31;68949;53.176;18.088;2023-04-25T11:18:00;12.52;58.59
79489;SHT31;68949;53.176;18.088;2023-04-25T11:20:27;12.36;58.19
79489;SHT31;68949;53.176;18.088;2023-04-25T11:22:56;12.26;59.69
79489;SHT31;68949;53.176;18.088;2023-04-25T11:25:26;12.24;60.26
79489;SHT31;68949;53.176;18.088;2023-04-25T11:27:55;12.28;60.82
79489;SHT31;68949;53.176;18.088;2023-04-25T11:30:24;12.31;60.80
79489;SHT31;68949;53.176;18.088;2023-04-25T11:32:53;12.26;60.29
79489;SHT31;68949;53.176;18.088;2023-04-25T11:35:20;12.23;60.34
79489;SHT31;68949;53.176;18.088;2023-04-25T11:37:49;12.30;60.38
79489;SHT31;68949;53.176;18.088;2023-04-25T11:40:16;12.42;61.47
79489;SHT31;68949;53.176;18.088;2023-04-25T11:42:44;12.58;61.44
79489;SHT31;68949;53.176;18.088;2023-04-25T11:45:13;12.71;61.64
79489;SHT31;68949;53.176;18.088;2023-04-25T11:47:41;12.80;61.73
79489;SHT31;68949;53.176;18.088;2023-04-25T11:50:08;12.91;61.51
79489;SHT31;68949;53.176;18.088;2023-04-25T11:52:37;12.77;59.94
79489;SHT31;68949;53.176;18.088;2023-04-25T11:55:07;12.58;60.21
79489;SHT31;68949;53.176;18.088;2023-04-25T11:57:40;12.49;60.80
79489;SHT31;68949;53.176;18.088;2023-04-25T12:00:13;12.36;60.11
79489;SHT31;68949;53.176;18.088;2023-04-25T12:02:44;12.30;61.36
79489;SHT31;68949;53.176;18.088;2023-04-25T12:05:19;12.21;60.97
79489;SHT31;68949;53.176;18.088;2023-04-25T12:07:49;12.14;61.26
79489;SHT31;68949;53.176;18.088;2023-04-25T12:10:17;12.20;61.98
79489;SHT31;68949;53.176;18.088;2023-04-25T12:12:45;12.31;62.38
79489;SHT31;68949;53.176;18.088;2023-04-25T12:15:14;12.42;61.82
79489;SHT31;68949;53.176;18.088;2023-04-25T12:17:46;12.52;61.24
79489;SHT31;68949;53.176;18.088;2023-04-25T12:20:15;12.56;60.06
79489;SHT31;68949;53.176;18.088;2023-04-25T12:22:45;12.49;58.88
79489;SHT31;68949;53.176;18.088;2023-04-25T12:25:33;12.50;59.47
79489;SHT31;68949;53.176;18.088;2023-04-25T12:28:18;12.52;59.40
79489;SHT31;68949;53.176;18.088;2023-04-25T12:30:54;12.48;59.11
79489;SHT31;68949;53.176;18.088;2023-04-25T12:33:33;12.52;60.06
79489;SHT31;68949;53.176;18.088;2023-04-25T12:36:03;12.60;59.30
79489;SHT31;68949;53.176;18.088;2023-04-25T12:38:36;12.66;59.53
79489;SHT31;68949;53.176;18.088;2023-04-25T12:41:05;12.71;59.40
79489;SHT31;68949;53.176;18.088;2023-04-25T12:43:33;12.81;59.46
79489;SHT31;68949;53.176;18.088;2023-04-25T12:46:00;12.81;59.58
79489;SHT31;68949;53.176;18.088;2023-04-25T12:48:29;12.80;59.33
79489;SHT31;68949;53.176;18.088;2023-04-25T12:50:55;12.78;59.48
79489;SHT31;68949;53.176;18.088;2023-04-25T12:53:22;12.82;60.06
79489;SHT31;68949;53.176;18.088;2023-04-25T12:55:50;12.79;59.43
79489;SHT31;68949;53.176;18.088;2023-04-25T12:58:18;12.69;58.88
79489;SHT31;68949;53.176;18.088;2023-04-25T13:00:46;12.61;58.94
79489;SHT31;68949;53.176;18.088;2023-04-25T13:03:13;12.59;58.82
79489;SHT31;68949;53.176;18.088;2023-04-25T13:05:40;12.63;59.07
79489;SHT31;68949;53.176;18.088;2023-04-25T13:08:08;12.73;59.21
79489;SHT31;68949;53.176;18.088;2023-04-25T13:10:35;12.73;58.73
79489;SHT31;68949;53.176;18.088;2023-04-25T13:13:04;12.71;58.80
79489;SHT31;68949;53.176;18.088;2023-04-25T13:15:31;12.68;59.36
79489;SHT31;68949;53.176;18.088;2023-04-25T13:17:58;12.61;59.33
79489;SHT31;68949;53.176;18.088;2023-04-25T13:20:25;12.40;59.72
79489;SHT31;68949;53.176;18.088;2023-04-25T13:22:51;12.20;60.93
79489;SHT31;68949;53.176;18.088;2023-04-25T13:25:18;11.99;61.28
79489;SHT31;68949;53.176;18.088;2023-04-25T13:27:45;11.84;60.91
79489;SHT31;68949;53.176;18.088;2023-04-25T13:30:12;11.79;61.81
79489;SHT31;68949;53.176;18.088;2023-04-25T13:32:39;11.76;62.31
79489;SHT31;68949;53.176;18.088;2023-04-25T13:35:09;11.74;62.87
79489;SHT31;68949;53.176;18.088;2023-04-25T13:37:38;11.75;62.47
79489;SHT31;68949;53.176;18.088;2023-04-25T13:40:07;11.77;62.55
79489;SHT31;68949;53.176;18.088;2023-04-25T13:42:37;11.80;62.91
79489;SHT31;68949;53.176;18.088;2023-04-25T13:45:05;11.77;63.27
79489;SHT31;68949;53.176;18.088;2023-04-25T13:47:34;11.75;63.61
79489;SHT31;68949;53.176;18.088;2023-04-25T13:50:01;11.78;63.34
79489;SHT31;68949;53.176;18.088;2023-04-25T13:52:29;11.81;63.73
79489;SHT31;68949;53.176;18.088;2023-04-25T13:54:56;11.89;64.11
79489;SHT31;68949;53.176;18.088;2023-04-25T13:57:22;11.99;64.09
79489;SHT31;68949;53.176;18.088;2023-04-25T13:59:50;12.09;63.86
79489;SHT31;68949;53.176;18.088;2023-04-25T14:02:17;12.15;63.21
79489;SHT31;68949;53.176;18.088;2023-04-25T14:04:44;12.22;63.18
79489;SHT31;68949;53.176;18.088;2023-04-25T14:07:11;12.30;62.67
79489;SHT31;68949;53.176;18.088;2023-04-25T14:09:37;12.32;62.56
79489;SHT31;68949;53.176;18.088;2023-04-25T14:12:04;12.43;62.68
79489;SHT31;68949;53.176;18.088;2023-04-25T14:14:32;12.57;62.36
79489;SHT31;68949;53.176;18.088;2023-04-25T14:16:59;12.64;61.71
79489;SHT31;68949;53.176;18.088;2023-04-25T14:19:26;12.71;61.83
79489;SHT31;68949;53.176;18.088;2023-04-25T14:21:53;12.75;61.67
79489;SHT31;68949;53.176;18.088;2023-04-25T14:24:19;12.77;62.22
79489;SHT31;68949;53.176;18.088;2023-04-25T14:26:46;12.77;61.92
79489;SHT31;68949;53.176;18.088;2023-04-25T14:29:13;12.45;61.24
79489;SHT31;68949;53.176;18.088;2023-04-25T14:31:40;11.92;62.34
79489;SHT31;68949;53.176;18.088;2023-04-25T14:34:07;11.51;62.87
79489;SHT31;68949;53.176;18.088;2023-04-25T14:36:35;11.18;63.85
79489;SHT31;68949;53.176;18.088;2023-04-25T14:39:03;10.88;65.13
79489;SHT31;68949;53.176;18.088;2023-04-25T14:41:31;10.64;65.66
79489;SHT31;68949;53.176;18.088;2023-04-25T14:43:58;10.49;66.57
79489;SHT31;68949;53.176;18.088;2023-04-25T14:46:25;10.42;66.99
79489;SHT31;68949;53.176;18.088;2023-04-25T14:48:52;10.30;67.79
79489;SHT31;68949;53.176;18.088;2023-04-25T14:51:19;10.17;68.40
79489;SHT31;68949;53.176;18.088;2023-04-25T14:53:46;10.04;68.89
79489;SHT31;68949;53.176;18.088;2023-04-25T14:56:13;9.97;69.29
79489;SHT31;68949;53.176;18.088;2023-04-25T14:58:39;9.88;69.76
79489;SHT31;68949;53.176;18.088;2023-04-25T15:01:06;9.80;70.02
79489;SHT31;68949;53.176;18.088;2023-04-25T15:03:34;9.66;70.50
79489;SHT31;68949;53.176;18.088;2023-04-25T15:06:01;9.58;71.14
79489;SHT31;68949;53.176;18.088;2023-04-25T15:08:28;9.57;71.56
79489;SHT31;68949;53.176;18.088;2023-04-25T15:10:54;9.59;71.93
79489;SHT31;68949;53.176;18.088;2023-04-25T15:13:21;9.60;72.09
79489;SHT31;68949;53.176;18.088;2023-04-25T15:15:48;9.60;72.47
79489;SHT31;68949;53.176;18.088;2023-04-25T15:18:17;9.58;72.73
79489;SHT31;68949;53.176;18.088;2023-04-25T15:20:48;9.65;72.78
79489;SHT31;68949;53.176;18.088;2023-04-25T15:23:15;9.69;73.01
79489;SHT31;68949;53.176;18.088;2023-04-25T15:25:43;9.72;73.04
79489;SHT31;68949;53.176;18.088;2023-04-25T15:28:10;9.74;73.60
79489;SHT31;68949;53.176;18.088;2023-04-25T15:30:37;9.77;73.53
79489;SHT31;68949;53.176;18.088;2023-04-25T15:33:03;9.83;73.59
79489;SHT31;68949;53.176;18.088;2023-04-25T15:35:30;9.90;73.62
79489;SHT31;68949;53.176;18.088;2023-04-25T15:37:56;9.98;73.48
79489;SHT31;68949;53.176;18.088;2023-04-25T15:40:23;10.02;73.11
79489;SHT31;68949;53.176;18.088;2023-04-25T15:42:50;10.09;72.99
79489;SHT31;68949;53.176;18.088;2023-04-25T15:45:19;10.15;72.76